createdAt,value
2019-03-21T00:02:01.733Z,3.40
2019-03-21T00:04:37.261Z,3.43
2019-03-21T00:07:12.719Z,3.44
2019-03-21T00:11:51.947Z,3.43
2019-03-21T00:14:47.420Z,3.43
2019-03-21T00:17:26.887Z,3.33
2019-03-21T00:20:01.806Z,3.28
2019-03-21T00:22:38.221Z,3.30
2019-03-21T00:25:16.286Z,3.33
2019-03-21T00:27:50.816Z,3.31
2019-03-21T00:30:26.111Z,3.23
2019-03-21T00:33:01.360Z,3.18
2019-03-21T00:35:41.530Z,3.17
2019-03-21T00:38:16.371Z,3.18
2019-03-21T00:40:51.044Z,3.21
2019-03-21T00:43:25.553Z,3.19
2019-03-21T00:46:01.441Z,3.14
2019-03-21T00:48:36.514Z,3.15
2019-03-21T00:51:11.645Z,3.21
2019-03-21T00:53:47.557Z,3.17
2019-03-21T00:56:23.865Z,3.15
2019-03-21T00:58:58.659Z,3.12
2019-03-21T01:01:33.772Z,3.09
2019-03-21T01:04:08.939Z,3.07
2019-03-21T01:06:44.115Z,3.13
2019-03-21T01:09:19.279Z,3.34
2019-03-21T01:11:54.651Z,3.39
2019-03-21T01:14:30.174Z,3.38
2019-03-21T01:17:05.764Z,3.27
2019-03-21T01:19:40.904Z,3.14
2019-03-21T01:22:17.633Z,3.05
2019-03-21T01:24:54.355Z,3.06
2019-03-21T01:27:29.749Z,3.15
2019-03-21T01:30:07.106Z,3.24
2019-03-21T01:32:41.706Z,3.27
2019-03-21T01:35:16.403Z,3.16
2019-03-21T01:37:52.863Z,3.04
2019-03-21T01:40:28.881Z,2.93
2019-03-21T01:43:03.545Z,2.88
2019-03-21T01:45:38.645Z,2.92
2019-03-21T01:48:13.537Z,3.02
2019-03-21T01:50:48.120Z,2.94
2019-03-21T01:53:23.417Z,2.79
2019-03-21T01:55:58.179Z,2.68
2019-03-21T01:58:33.282Z,2.64
2019-03-21T02:01:08.955Z,2.66
2019-03-21T02:03:43.705Z,2.86
2019-03-21T02:06:18.775Z,2.86
2019-03-21T02:08:53.785Z,2.71
2019-03-21T02:11:28.345Z,2.58
2019-03-21T02:14:03.519Z,2.59
2019-03-21T02:16:38.853Z,2.52
2019-03-21T02:19:13.545Z,2.45
2019-03-21T02:21:48.135Z,2.51
2019-03-21T02:24:23.623Z,2.74
2019-03-21T02:26:58.395Z,2.67
2019-03-21T02:33:04.787Z,2.43
2019-03-21T02:35:39.678Z,2.37
2019-03-21T02:38:14.674Z,2.34
2019-03-21T02:40:50.093Z,2.36
2019-03-21T02:43:25.139Z,2.42
2019-03-21T02:45:59.768Z,2.46
2019-03-21T02:48:34.408Z,2.43
2019-03-21T02:51:09.781Z,2.38
2019-03-21T02:53:44.847Z,2.31
2019-03-21T02:56:20.736Z,2.26
2019-03-21T02:58:55.901Z,2.41
2019-03-21T03:01:30.983Z,2.51
2019-03-21T03:04:05.641Z,2.61
2019-03-21T03:06:40.703Z,2.62
2019-03-21T03:09:16.345Z,2.70
2019-03-21T03:11:51.400Z,2.75
2019-03-21T03:14:26.240Z,2.63
2019-03-21T03:17:01.137Z,2.56
2019-03-21T03:19:36.335Z,2.58
2019-03-21T03:22:10.867Z,2.57
2019-03-21T03:24:46.003Z,2.57
2019-03-21T03:27:20.479Z,2.54
2019-03-21T03:29:54.961Z,2.56
2019-03-21T03:32:29.968Z,2.49
2019-03-21T03:35:05.065Z,2.40
2019-03-21T03:37:39.656Z,2.29
2019-03-21T03:40:20.800Z,2.22
2019-03-21T03:42:56.363Z,2.14
2019-03-21T03:45:38.124Z,2.17
2019-03-21T03:48:13.257Z,2.11
2019-03-21T03:50:48.523Z,2.10
2019-03-21T03:53:25.051Z,2.16
2019-03-21T03:56:00.142Z,2.19
2019-03-21T03:58:37.575Z,2.14
2019-03-21T04:01:12.248Z,2.12
2019-03-21T04:03:47.622Z,2.04
2019-03-21T04:06:22.836Z,1.99
2019-03-21T04:08:57.734Z,1.91
2019-03-21T04:11:32.663Z,1.80
2019-03-21T04:14:07.437Z,1.76
2019-03-21T04:16:43.339Z,1.89
2019-03-21T04:19:17.930Z,1.90
2019-03-21T04:21:52.580Z,1.81
2019-03-21T04:24:29.083Z,1.73
2019-03-21T04:27:03.467Z,1.79
2019-03-21T04:29:38.548Z,1.79
2019-03-21T04:32:17.758Z,1.86
2019-03-21T04:34:53.136Z,1.84
2019-03-21T04:37:28.058Z,1.77
2019-03-21T04:40:03.622Z,1.72
2019-03-21T04:42:38.296Z,1.70
2019-03-21T04:45:18.430Z,1.68
2019-03-21T04:47:53.263Z,1.61
2019-03-21T04:50:28.706Z,1.60
2019-03-21T04:53:03.728Z,1.78
2019-03-21T04:55:38.590Z,1.71
2019-03-21T04:58:13.315Z,1.58
2019-03-21T05:00:48.638Z,1.48
2019-03-21T05:03:23.095Z,1.40
2019-03-21T05:05:58.244Z,1.40
2019-03-21T05:08:35.928Z,1.42
2019-03-21T05:11:11.302Z,1.47
2019-03-21T05:13:46.793Z,1.54
2019-03-21T05:16:21.958Z,1.50
2019-03-21T05:18:57.791Z,1.55
2019-03-21T05:21:33.217Z,1.65
2019-03-21T05:24:08.644Z,1.76
2019-03-21T05:26:43.662Z,1.75
2019-03-21T05:29:18.658Z,1.67
2019-03-21T05:31:53.387Z,1.65
2019-03-21T05:34:28.406Z,1.57
2019-03-21T05:37:05.527Z,1.54
2019-03-21T05:39:40.215Z,1.45
2019-03-21T05:42:21.857Z,1.45
2019-03-21T05:44:59.938Z,1.40
2019-03-21T05:47:37.595Z,1.40
2019-03-21T05:50:15.112Z,1.53
2019-03-21T05:52:49.733Z,1.65
2019-03-21T05:55:28.524Z,1.77
2019-03-21T05:58:03.289Z,1.83
2019-03-21T06:00:43.954Z,1.78
2019-03-21T06:03:27.914Z,1.75
2019-03-21T06:06:17.064Z,1.89
2019-03-21T06:08:52.451Z,1.93
2019-03-21T06:11:27.586Z,1.91
2019-03-21T06:14:06.236Z,1.82
2019-03-21T06:16:45.293Z,1.89
2019-03-21T06:19:53.077Z,1.91
2019-03-21T06:23:07.330Z,1.95
2019-03-21T06:26:11.841Z,2.02
2019-03-21T06:28:46.550Z,2.11
2019-03-21T06:31:21.162Z,2.20
2019-03-21T06:33:55.973Z,2.27
2019-03-21T06:36:31.110Z,2.33
2019-03-21T06:39:08.494Z,2.41
2019-03-21T06:41:43.706Z,2.56
2019-03-21T06:44:18.214Z,2.67
2019-03-21T06:46:54.220Z,2.88
2019-03-21T06:49:30.425Z,3.21
2019-03-21T06:52:05.151Z,3.23
2019-03-21T06:54:40.030Z,3.23
2019-03-21T06:57:15.180Z,3.30
2019-03-21T06:59:49.820Z,3.53
2019-03-21T07:02:25.788Z,3.72
2019-03-21T07:05:00.686Z,3.72
2019-03-21T07:07:35.872Z,3.78
2019-03-21T07:10:13.717Z,4.04
2019-03-21T07:12:48.600Z,4.26
2019-03-21T07:15:23.277Z,4.48
2019-03-21T07:17:58.269Z,4.63
2019-03-21T07:20:33.174Z,4.81
2019-03-21T07:23:09.132Z,4.92
2019-03-21T07:25:47.454Z,5.09
2019-03-21T07:28:23.841Z,5.30
2019-03-21T07:31:00.926Z,5.41
2019-03-21T07:33:37.714Z,5.51
2019-03-21T07:36:13.182Z,5.62
2019-03-21T07:38:47.970Z,5.73
2019-03-21T07:41:23.624Z,5.84
2019-03-21T07:43:58.463Z,6.01
2019-03-21T07:46:33.727Z,6.22
2019-03-21T07:49:08.871Z,6.38
2019-03-21T07:51:46.035Z,6.59
2019-03-21T07:54:21.528Z,6.78
2019-03-21T07:56:56.079Z,7.09
2019-03-21T07:59:31.429Z,7.35
2019-03-21T08:02:06.719Z,7.55
2019-03-21T08:04:41.981Z,7.78
2019-03-21T08:07:17.915Z,7.95
2019-03-21T08:09:52.907Z,8.10
2019-03-21T08:12:27.623Z,8.31
2019-03-21T08:15:07.534Z,8.49
2019-03-21T08:17:42.187Z,8.62
2019-03-21T08:20:18.100Z,8.75
2019-03-21T08:22:56.647Z,8.94
2019-03-21T08:25:31.584Z,9.14
2019-03-21T08:28:06.823Z,9.36
2019-03-21T08:31:15.861Z,9.66
2019-03-21T08:33:50.878Z,10.07
2019-03-21T08:36:26.910Z,10.88
2019-03-21T08:39:07.723Z,11.85
2019-03-21T08:41:43.214Z,12.67
2019-03-21T08:44:19.767Z,13.33
2019-03-21T08:46:57.458Z,13.74
2019-03-21T08:49:32.911Z,13.82
2019-03-21T08:52:08.456Z,13.87
2019-03-21T08:54:43.215Z,14.08
2019-03-21T08:57:18.623Z,14.41
2019-03-21T08:59:55.485Z,14.43
2019-03-21T09:02:42.126Z,14.32
2019-03-21T09:05:18.440Z,14.29
2019-03-21T09:07:59.430Z,14.33
2019-03-21T09:10:36.051Z,14.33
2019-03-21T09:13:12.661Z,14.33
2019-03-21T09:15:49.420Z,14.18
2019-03-21T09:18:28.538Z,14.18
2019-03-21T09:21:18.888Z,14.22
2019-03-21T09:23:56.602Z,14.42
2019-03-21T09:26:31.681Z,14.59
2019-03-21T09:29:07.015Z,14.83
2019-03-21T09:31:42.473Z,14.99
2019-03-21T09:34:17.755Z,15.35
2019-03-21T09:36:53.761Z,15.61
2019-03-21T09:39:30.266Z,15.74
2019-03-21T09:42:05.242Z,15.61
2019-03-21T09:44:40.029Z,15.72
2019-03-21T09:47:19.580Z,15.86
2019-03-21T09:49:55.947Z,15.85
2019-03-21T09:52:33.941Z,15.84
2019-03-21T09:55:10.155Z,15.81
2019-03-21T09:57:49.144Z,15.82
2019-03-21T10:00:34.303Z,16.00
2019-03-21T10:03:10.970Z,16.28
2019-03-21T10:05:46.652Z,16.48
2019-03-21T10:08:23.900Z,16.42
2019-03-21T10:11:01.768Z,16.51
2019-03-21T10:13:37.674Z,16.85
2019-03-21T10:16:14.907Z,17.12
2019-03-21T10:18:53.639Z,17.33
2019-03-21T10:21:42.746Z,17.63
2019-03-21T10:24:22.494Z,17.54
2019-03-21T10:27:02.140Z,17.38
2019-03-21T10:29:38.184Z,17.66
2019-03-21T10:32:16.006Z,17.89
2019-03-21T10:34:51.266Z,17.51
2019-03-21T10:37:27.770Z,17.39
2019-03-21T10:40:03.945Z,17.23
2019-03-21T10:42:44.850Z,17.13
2019-03-21T10:45:20.765Z,17.23
2019-03-21T10:48:00.014Z,17.45
2019-03-21T10:50:38.093Z,17.72
2019-03-21T10:53:15.478Z,17.93
2019-03-21T10:55:54.569Z,18.13
2019-03-21T10:58:29.393Z,18.22
2019-03-21T11:01:04.510Z,18.30
2019-03-21T11:03:41.530Z,18.77
2019-03-21T11:06:22.591Z,19.23
2019-03-21T11:09:00.612Z,19.50
2019-03-21T11:11:38.420Z,19.16
2019-03-21T11:14:15.854Z,19.02
2019-03-21T11:16:53.166Z,19.13
2019-03-21T11:19:28.272Z,19.08
2019-03-21T11:22:11.357Z,19.02
2019-03-21T11:24:47.189Z,19.03
2019-03-21T11:27:26.365Z,19.25
2019-03-21T11:30:15.438Z,19.34
2019-03-21T11:32:51.558Z,19.22
2019-03-21T11:35:29.172Z,19.43
2019-03-21T11:38:07.270Z,19.84
2019-03-21T11:41:14.393Z,20.12
2019-03-21T11:43:55.332Z,20.33
2019-03-21T11:46:42.291Z,20.07
2019-03-21T11:49:20.285Z,20.01
2019-03-21T11:52:17.506Z,19.81
2019-03-21T11:54:53.600Z,18.96
2019-03-21T11:57:31.451Z,18.61
2019-03-21T12:00:17.493Z,18.63
2019-03-21T12:02:52.334Z,18.57
2019-03-21T12:05:28.130Z,18.84
2019-03-21T12:08:04.553Z,19.38
2019-03-21T12:10:39.959Z,19.80
2019-03-21T12:13:20.933Z,19.88
2019-03-21T12:15:57.641Z,19.95
2019-03-21T12:18:34.361Z,20.01
2019-03-21T12:21:09.692Z,19.95
2019-03-21T12:23:47.260Z,19.76
2019-03-21T12:26:22.465Z,19.55
2019-03-21T12:29:02.509Z,19.43
2019-03-21T12:31:41.502Z,19.59
2019-03-21T12:34:20.670Z,19.75
2019-03-21T12:37:00.542Z,19.78
2019-03-21T12:39:36.672Z,20.05
2019-03-21T12:42:14.081Z,20.47
2019-03-21T12:44:50.798Z,20.83
2019-03-21T12:47:31.725Z,20.79
2019-03-21T12:50:10.994Z,20.83
2019-03-21T12:52:48.160Z,20.65
2019-03-21T12:55:23.405Z,20.44
2019-03-21T12:58:01.377Z,20.22
2019-03-21T13:00:46.522Z,19.92
2019-03-21T13:03:22.132Z,19.85
2019-03-21T13:05:58.762Z,20.22
2019-03-21T13:08:37.476Z,20.06
2019-03-21T13:11:12.993Z,20.28
2019-03-21T13:13:48.317Z,20.56
2019-03-21T13:16:23.982Z,21.01
2019-03-21T13:19:01.079Z,20.82
2019-03-21T13:21:36.642Z,20.99
2019-03-21T13:24:11.474Z,21.11
2019-03-21T13:26:46.751Z,21.10
2019-03-21T13:29:25.236Z,21.10
2019-03-21T13:32:09.802Z,21.40
2019-03-21T13:34:46.270Z,21.04
2019-03-21T13:37:21.591Z,21.07
2019-03-21T13:39:57.150Z,21.20
2019-03-21T13:42:32.143Z,21.32
2019-03-21T13:45:12.260Z,20.91
2019-03-21T13:47:48.056Z,21.03
2019-03-21T13:50:26.231Z,21.24
2019-03-21T13:53:05.241Z,21.39
2019-03-21T13:55:48.991Z,21.53
2019-03-21T13:58:23.563Z,21.65
2019-03-21T14:00:58.771Z,21.85
2019-03-21T14:03:33.528Z,22.29
2019-03-21T14:06:09.993Z,22.71
2019-03-21T14:08:46.223Z,22.79
2019-03-21T14:11:25.312Z,22.82
2019-03-21T14:14:00.753Z,22.49
2019-03-21T14:16:40.409Z,22.36
2019-03-21T14:19:17.040Z,21.98
2019-03-21T14:21:52.140Z,21.96
2019-03-21T14:24:29.597Z,22.44
2019-03-21T14:27:05.648Z,22.40
2019-03-21T14:29:41.604Z,22.54
2019-03-21T14:32:16.708Z,22.50
2019-03-21T14:34:52.591Z,22.34
2019-03-21T14:37:27.799Z,22.37
2019-03-21T14:40:09.611Z,22.56
2019-03-21T14:42:45.839Z,22.38
2019-03-21T14:45:21.906Z,22.44
2019-03-21T14:47:57.075Z,22.40
2019-03-21T14:50:32.036Z,22.32
2019-03-21T14:53:07.656Z,22.53
2019-03-21T14:55:47.621Z,22.61
2019-03-21T14:58:23.832Z,22.45
2019-03-21T15:00:59.962Z,22.33
2019-03-21T15:03:40.174Z,21.92
2019-03-21T15:06:14.645Z,21.90
2019-03-21T15:08:50.415Z,21.80
2019-03-21T15:11:25.229Z,21.66
2019-03-21T15:14:00.176Z,21.62
2019-03-21T15:16:35.263Z,21.66
2019-03-21T15:19:10.054Z,21.59
2019-03-21T15:21:45.932Z,21.25
2019-03-21T15:24:20.805Z,21.11
2019-03-21T15:26:55.671Z,21.32
2019-03-21T15:29:32.340Z,21.28
2019-03-21T15:32:07.169Z,21.41
2019-03-21T15:34:41.793Z,21.75
2019-03-21T15:37:19.630Z,21.80
2019-03-21T15:39:54.920Z,21.96
2019-03-21T15:42:31.237Z,22.24
2019-03-21T15:45:22.252Z,22.35
2019-03-21T15:47:58.844Z,22.40
2019-03-21T15:50:38.370Z,22.37
2019-03-21T15:53:13.132Z,22.38
2019-03-21T15:55:50.285Z,22.21
2019-03-21T15:58:24.936Z,21.97
2019-03-21T16:01:02.036Z,22.14
2019-03-21T16:03:40.349Z,22.01
2019-03-21T16:06:16.436Z,21.90
2019-03-21T16:08:52.798Z,22.21
2019-03-21T16:11:33.414Z,22.34
2019-03-21T16:14:21.449Z,22.42
2019-03-21T16:16:58.512Z,22.18
2019-03-21T16:19:38.080Z,21.96
2019-03-21T16:22:14.646Z,21.80
2019-03-21T16:24:49.726Z,21.51
2019-03-21T16:27:24.715Z,21.52
2019-03-21T16:30:04.154Z,21.68
2019-03-21T16:32:39.020Z,21.69
2019-03-21T16:35:17.580Z,21.65
2019-03-21T16:37:54.538Z,21.70
2019-03-21T16:40:40.138Z,21.77
2019-03-21T16:43:15.341Z,21.48
2019-03-21T16:45:53.847Z,21.27
2019-03-21T16:48:31.690Z,20.97
2019-03-21T16:51:09.197Z,20.74
2019-03-21T16:53:45.949Z,20.47
2019-03-21T16:56:20.843Z,20.09
2019-03-21T16:58:58.849Z,19.71
2019-03-21T17:01:34.551Z,19.35
2019-03-21T17:04:11.379Z,19.26
2019-03-21T17:06:49.847Z,19.24
2019-03-21T17:09:26.007Z,19.05
2019-03-21T17:12:03.947Z,18.80
2019-03-21T17:14:39.029Z,18.51
2019-03-21T17:17:14.939Z,18.25
2019-03-21T17:19:49.686Z,17.96
2019-03-21T17:22:25.767Z,17.76
2019-03-21T17:25:01.355Z,17.55
2019-03-21T17:27:36.664Z,17.39
2019-03-21T17:30:15.622Z,17.25
2019-03-21T17:32:54.385Z,17.08
2019-03-21T17:35:29.138Z,16.87
2019-03-21T17:38:07.988Z,16.66
2019-03-21T17:40:45.467Z,16.47
2019-03-21T17:43:20.935Z,16.24
2019-03-21T17:45:58.907Z,16.03
2019-03-21T17:48:39.303Z,15.84
2019-03-21T17:51:14.146Z,15.61
2019-03-21T17:53:48.966Z,15.40
2019-03-21T17:56:24.467Z,15.22
2019-03-21T17:59:01.081Z,15.06
2019-03-21T18:01:38.443Z,14.93
2019-03-21T18:04:14.982Z,14.78
2019-03-21T18:06:53.488Z,14.60
2019-03-21T18:09:28.288Z,14.44
2019-03-21T18:12:05.276Z,14.24
2019-03-21T18:14:41.652Z,14.10
2019-03-21T18:17:19.669Z,13.98
2019-03-21T18:19:54.908Z,13.86
2019-03-21T18:22:33.922Z,13.71
2019-03-21T18:25:16.150Z,13.58
2019-03-21T18:27:50.933Z,13.45
2019-03-21T18:30:26.252Z,13.25
2019-03-21T18:33:01.623Z,13.00
2019-03-21T18:35:39.632Z,12.78
2019-03-21T18:38:16.692Z,12.62
2019-03-21T18:40:52.297Z,12.42
2019-03-21T18:43:30.174Z,12.21
2019-03-21T18:46:04.890Z,12.07
2019-03-21T18:48:40.210Z,11.93
2019-03-21T18:51:15.676Z,11.74
2019-03-21T18:53:50.444Z,11.55
2019-03-21T18:56:27.574Z,11.46
2019-03-21T18:59:03.250Z,11.27
2019-03-21T19:01:38.363Z,11.08
2019-03-21T19:04:14.719Z,10.89
2019-03-21T19:06:52.791Z,10.70
2019-03-21T19:09:27.634Z,10.53
2019-03-21T19:12:10.768Z,10.35
2019-03-21T19:14:53.307Z,10.19
2019-03-21T19:17:29.709Z,10.12
2019-03-21T19:20:06.834Z,10.03
2019-03-21T19:22:41.614Z,9.91
2019-03-21T19:25:19.825Z,9.80
2019-03-21T19:27:55.542Z,9.67
2019-03-21T19:30:31.960Z,9.56
2019-03-21T19:33:09.115Z,9.45
2019-03-21T19:35:46.917Z,9.42
2019-03-21T19:38:26.188Z,9.36
2019-03-21T19:41:04.454Z,9.28
2019-03-21T19:43:39.403Z,9.26
2019-03-21T19:46:14.255Z,9.16
2019-03-21T19:48:51.910Z,9.10
2019-03-21T19:51:27.179Z,9.03
2019-03-21T19:54:03.626Z,8.98
2019-03-21T19:56:38.650Z,8.87
2019-03-21T19:59:21.586Z,8.80
2019-03-21T20:01:57.851Z,8.70
2019-03-21T20:04:34.122Z,8.70
2019-03-21T20:07:10.882Z,8.63
2019-03-21T20:09:45.630Z,8.66
2019-03-21T20:12:24.307Z,8.62
2019-03-21T20:15:00.852Z,8.56
2019-03-21T20:17:40.068Z,8.48
2019-03-21T20:20:15.842Z,8.43
2019-03-21T20:22:53.301Z,8.36
2019-03-21T20:25:42.307Z,8.27
2019-03-21T20:28:18.738Z,8.22
2019-03-21T20:30:53.779Z,8.24
2019-03-21T20:33:29.018Z,8.19
2019-03-21T20:36:14.503Z,8.11
2019-03-21T20:38:51.627Z,8.01
2019-03-21T20:41:27.029Z,7.89
2019-03-21T20:44:14.624Z,7.80
2019-03-21T20:46:52.106Z,7.70
2019-03-21T20:49:28.762Z,7.66
2019-03-21T20:52:04.415Z,7.60
2019-03-21T20:54:42.531Z,7.56
2019-03-21T20:57:17.249Z,7.47
2019-03-21T20:59:51.931Z,7.40
2019-03-21T21:02:29.569Z,7.35
2019-03-21T21:05:09.451Z,7.38
2019-03-21T21:07:44.336Z,7.37
2019-03-21T21:10:30.601Z,7.31
2019-03-21T21:13:07.379Z,7.15
2019-03-21T21:15:41.984Z,7.08
2019-03-21T21:18:21.384Z,7.08
2019-03-21T21:20:56.883Z,6.99
2019-03-21T21:23:34.260Z,6.99
2019-03-21T21:26:10.748Z,6.94
2019-03-21T21:28:47.158Z,6.92
2019-03-21T21:31:25.982Z,6.86
2019-03-21T21:34:02.834Z,6.88
2019-03-21T21:36:38.952Z,6.86
2019-03-21T21:39:16.183Z,6.92
2019-03-21T21:41:51.143Z,6.97
2019-03-21T21:44:30.981Z,6.98
2019-03-21T21:47:08.826Z,6.90
2019-03-21T21:49:44.006Z,6.83
2019-03-21T21:52:24.083Z,6.78
2019-03-21T21:54:59.500Z,6.66
2019-03-21T21:57:35.308Z,6.59
2019-03-21T22:00:14.879Z,6.56
2019-03-21T22:02:50.083Z,6.66
2019-03-21T22:05:25.933Z,6.56
2019-03-21T22:08:03.938Z,6.48
2019-03-21T22:10:39.033Z,6.43
2019-03-21T22:13:16.195Z,6.46
2019-03-21T22:15:51.247Z,6.37
2019-03-21T22:18:26.546Z,6.29
2019-03-21T22:21:01.843Z,6.23
2019-03-21T22:23:37.142Z,6.21
2019-03-21T22:26:14.689Z,6.29
2019-03-21T22:28:53.340Z,6.54
2019-03-21T22:31:27.805Z,6.69
2019-03-21T22:34:03.742Z,6.71
2019-03-21T22:36:49.299Z,6.65
2019-03-21T22:39:24.952Z,6.55
2019-03-21T22:42:00.079Z,6.51
2019-03-21T22:44:35.803Z,6.57
2019-03-21T22:47:10.922Z,6.67
2019-03-21T22:49:55.909Z,6.78
2019-03-21T22:52:31.864Z,6.89
2019-03-21T22:55:09.999Z,6.97
2019-03-21T22:57:49.801Z,6.90
2019-03-21T23:00:40.930Z,6.84
2019-03-21T23:03:17.737Z,6.71
2019-03-21T23:05:53.721Z,6.58
2019-03-21T23:08:32.507Z,6.41
2019-03-21T23:11:10.434Z,6.27
2019-03-21T23:13:47.775Z,6.23
2019-03-21T23:16:27.819Z,6.11
2019-03-21T23:19:04.495Z,6.01
2019-03-21T23:21:39.286Z,5.95
2019-03-21T23:24:14.257Z,5.92
2019-03-21T23:26:53.025Z,5.90
2019-03-21T23:29:28.026Z,5.91
2019-03-21T23:32:07.710Z,6.00
2019-03-21T23:34:52.938Z,6.18
2019-03-21T23:37:27.734Z,6.24
2019-03-21T23:40:03.718Z,6.31
2019-03-21T23:42:40.354Z,6.32
2019-03-21T23:45:19.719Z,6.23
2019-03-21T23:47:54.851Z,6.17
2019-03-21T23:50:30.244Z,6.11
2019-03-21T23:53:06.705Z,6.04
2019-03-21T23:55:41.941Z,6.13
2019-03-21T23:58:17.402Z,6.15
